sensor_id;sensor_type;location;lat;lon;timestamp;temperature;humidity
41318;DHT22;27067;51.554;7.026;2022-08-01T00:02:29;22.70;93.40
41318;DHT22;27067;51.554;7.026;2022-08-01T00:04:56;22.70;93.70
41318;DHT22;27067;51.554;7.026;2022-08-01T00:07:22;22.70;93.70
41318;DHT22;27067;51.554;7.026;2022-08-01T00:09:47;22.70;93.50
41318;DHT22;27067;51.554;7.026;2022-08-01T00:12:13;22.70;93.50
41318;DHT22;27067;51.554;7.026;2022-08-01T00:14:38;21.80;93.50
41318;DHT22;27067;51.554;7.026;2022-08-01T00:17:04;22.70;94.10
41318;DHT22;27067;51.554;7.026;2022-08-01T00:19:29;22.70;93.60
41318;DHT22;27067;51.554;7.026;2022-08-01T00:21:55;22.70;94.60
41318;DHT22;27067;51.554;7.026;2022-08-01T00:24:20;22.70;94.70
41318;DHT22;27067;51.554;7.026;2022-08-01T00:26:46;22.70;94.20
41318;DHT22;27067;51.554;7.026;2022-08-01T00:29:11;22.60;94.20
41318;DHT22;27067;51.554;7.026;2022-08-01T00:31:37;22.70;94.40
41318;DHT22;27067;51.554;7.026;2022-08-01T00:34:02;22.60;94.20
41318;DHT22;27067;51.554;7.026;2022-08-01T00:36:28;22.70;94.10
41318;DHT22;27067;51.554;7.026;2022-08-01T00:38:53;22.70;94.00
41318;DHT22;27067;51.554;7.026;2022-08-01T00:41:19;22.70;94.40
41318;DHT22;27067;51.554;7.026;2022-08-01T00:43:44;22.70;94.20
41318;DHT22;27067;51.554;7.026;2022-08-01T00:46:10;22.60;94.10
41318;DHT22;27067;51.554;7.026;2022-08-01T00:48:35;22.70;94.10
41318;DHT22;27067;51.554;7.026;2022-08-01T00:51:02;22.70;94.00
41318;DHT22;27067;51.554;7.026;2022-08-01T00:53:28;22.70;94.20
41318;DHT22;27067;51.554;7.026;2022-08-01T00:55:54;22.70;94.20
41318;DHT22;27067;51.554;7.026;2022-08-01T00:58:20;22.70;94.30
41318;DHT22;27067;51.554;7.026;2022-08-01T01:00:45;22.70;94.40
41318;DHT22;27067;51.554;7.026;2022-08-01T01:03:11;22.70;94.30
41318;DHT22;27067;51.554;7.026;2022-08-01T01:05:39;22.70;94.10
41318;DHT22;27067;51.554;7.026;2022-08-01T01:08:13;22.70;94.90
41318;DHT22;27067;51.554;7.026;2022-08-01T01:13:28;22.60;95.30
41318;DHT22;27067;51.554;7.026;2022-08-01T01:16:01;22.60;94.90
41318;DHT22;27067;51.554;7.026;2022-08-01T01:29:17;22.60;94.30
41318;DHT22;27067;51.554;7.026;2022-08-01T01:31:48;22.60;94.40
41318;DHT22;27067;51.554;7.026;2022-08-01T01:34:15;22.60;94.30
41318;DHT22;27067;51.554;7.026;2022-08-01T01:36:42;22.60;94.20
41318;DHT22;27067;51.554;7.026;2022-08-01T01:39:09;22.60;94.10
41318;DHT22;27067;51.554;7.026;2022-08-01T01:41:35;22.70;94.30
41318;DHT22;27067;51.554;7.026;2022-08-01T01:44:01;22.60;94.10
41318;DHT22;27067;51.554;7.026;2022-08-01T01:46:28;22.60;94.20
41318;DHT22;27067;51.554;7.026;2022-08-01T01:48:55;22.60;94.20
41318;DHT22;27067;51.554;7.026;2022-08-01T01:51:22;22.70;93.50
41318;DHT22;27067;51.554;7.026;2022-08-01T01:53:48;22.70;93.90
41318;DHT22;27067;51.554;7.026;2022-08-01T01:56:15;22.60;93.90
41318;DHT22;27067;51.554;7.026;2022-08-01T01:58:41;22.70;94.40
41318;DHT22;27067;51.554;7.026;2022-08-01T02:01:08;22.70;94.10
41318;DHT22;27067;51.554;7.026;2022-08-01T02:03:34;22.70;94.00
41318;DHT22;27067;51.554;7.026;2022-08-01T02:06:01;22.70;93.90
41318;DHT22;27067;51.554;7.026;2022-08-01T02:08:27;22.70;93.90
41318;DHT22;27067;51.554;7.026;2022-08-01T02:10:54;22.70;94.00
41318;DHT22;27067;51.554;7.026;2022-08-01T02:13:38;22.70;94.00
41318;DHT22;27067;51.554;7.026;2022-08-01T02:16:05;22.60;93.90
41318;DHT22;27067;51.554;7.026;2022-08-01T02:18:31;22.60;93.90
41318;DHT22;27067;51.554;7.026;2022-08-01T02:20:57;22.70;93.80
41318;DHT22;27067;51.554;7.026;2022-08-01T02:23:23;22.70;93.80
41318;DHT22;27067;51.554;7.026;2022-08-01T02:25:49;22.70;94.00
41318;DHT22;27067;51.554;7.026;2022-08-01T02:28:25;22.70;93.90
41318;DHT22;27067;51.554;7.026;2022-08-01T02:30:54;22.70;93.90
41318;DHT22;27067;51.554;7.026;2022-08-01T02:33:26;22.70;93.70
41318;DHT22;27067;51.554;7.026;2022-08-01T02:35:54;22.70;93.60
41318;DHT22;27067;51.554;7.026;2022-08-01T02:38:22;22.70;93.80
41318;DHT22;27067;51.554;7.026;2022-08-01T02:40:49;22.70;94.10
41318;DHT22;27067;51.554;7.026;2022-08-01T02:43:15;22.70;94.10
41318;DHT22;27067;51.554;7.026;2022-08-01T02:45:43;22.60;94.40
41318;DHT22;27067;51.554;7.026;2022-08-01T02:48:09;22.60;94.10
41318;DHT22;27067;51.554;7.026;2022-08-01T02:50:35;22.60;94.20
41318;DHT22;27067;51.554;7.026;2022-08-01T02:53:01;22.60;94.10
41318;DHT22;27067;51.554;7.026;2022-08-01T02:55:27;22.60;94.10
41318;DHT22;27067;51.554;7.026;2022-08-01T02:57:54;22.60;94.10
41318;DHT22;27067;51.554;7.026;2022-08-01T03:00:20;22.60;94.60
41318;DHT22;27067;51.554;7.026;2022-08-01T03:02:46;22.60;94.40
41318;DHT22;27067;51.554;7.026;2022-08-01T03:05:13;22.70;94.40
41318;DHT22;27067;51.554;7.026;2022-08-01T03:07:40;22.90;94.40
41318;DHT22;27067;51.554;7.026;2022-08-01T03:10:06;22.60;94.30
41318;DHT22;27067;51.554;7.026;2022-08-01T03:12:33;22.60;94.40
41318;DHT22;27067;51.554;7.026;2022-08-01T03:14:59;22.60;94.30
41318;DHT22;27067;51.554;7.026;2022-08-01T03:17:26;22.60;94.10
41318;DHT22;27067;51.554;7.026;2022-08-01T03:19:53;22.60;94.10
41318;DHT22;27067;51.554;7.026;2022-08-01T03:22:20;22.60;94.10
41318;DHT22;27067;51.554;7.026;2022-08-01T03:24:47;22.60;93.90
41318;DHT22;27067;51.554;7.026;2022-08-01T03:27:14;22.60;94.10
41318;DHT22;27067;51.554;7.026;2022-08-01T03:29:39;22.60;94.00
41318;DHT22;27067;51.554;7.026;2022-08-01T03:32:05;22.60;94.10
41318;DHT22;27067;51.554;7.026;2022-08-01T03:34:31;22.60;93.90
41318;DHT22;27067;51.554;7.026;2022-08-01T03:37:06;22.70;94.00
41318;DHT22;27067;51.554;7.026;2022-08-01T03:39:34;22.70;94.10
41318;DHT22;27067;51.554;7.026;2022-08-01T03:42:04;22.60;93.90
41318;DHT22;27067;51.554;7.026;2022-08-01T03:44:31;22.60;94.00
41318;DHT22;27067;51.554;7.026;2022-08-01T03:46:59;22.60;94.10
41318;DHT22;27067;51.554;7.026;2022-08-01T03:49:28;22.60;93.90
41318;DHT22;27067;51.554;7.026;2022-08-01T03:51:54;22.60;94.10
41318;DHT22;27067;51.554;7.026;2022-08-01T03:54:21;22.60;93.80
41318;DHT22;27067;51.554;7.026;2022-08-01T03:56:48;22.70;93.80
41318;DHT22;27067;51.554;7.026;2022-08-01T03:59:15;22.70;93.70
41318;DHT22;27067;51.554;7.026;2022-08-01T04:01:42;22.70;93.60
41318;DHT22;27067;51.554;7.026;2022-08-01T04:04:08;22.70;93.70
41318;DHT22;27067;51.554;7.026;2022-08-01T04:06:36;22.70;93.70
41318;DHT22;27067;51.554;7.026;2022-08-01T04:09:02;22.70;94.30
41318;DHT22;27067;51.554;7.026;2022-08-01T04:11:28;22.60;94.20
41318;DHT22;27067;51.554;7.026;2022-08-01T04:13:53;22.60;94.20
41318;DHT22;27067;51.554;7.026;2022-08-01T04:16:19;22.60;94.10
41318;DHT22;27067;51.554;7.026;2022-08-01T04:18:45;22.60;93.80
41318;DHT22;27067;51.554;7.026;2022-08-01T04:21:11;22.60;93.90
41318;DHT22;27067;51.554;7.026;2022-08-01T04:23:36;22.50;93.60
41318;DHT22;27067;51.554;7.026;2022-08-01T04:26:03;22.60;93.70
41318;DHT22;27067;51.554;7.026;2022-08-01T04:28:30;22.60;94.00
41318;DHT22;27067;51.554;7.026;2022-08-01T04:30:57;22.60;94.10
41318;DHT22;27067;51.554;7.026;2022-08-01T04:33:24;22.60;93.90
41318;DHT22;27067;51.554;7.026;2022-08-01T04:35:51;22.60;94.00
41318;DHT22;27067;51.554;7.026;2022-08-01T04:38:19;22.60;93.80
41318;DHT22;27067;51.554;7.026;2022-08-01T04:40:46;22.60;93.70
41318;DHT22;27067;51.554;7.026;2022-08-01T04:43:12;22.60;93.70
41318;DHT22;27067;51.554;7.026;2022-08-01T04:45:38;22.60;93.80
41318;DHT22;27067;51.554;7.026;2022-08-01T04:48:06;22.60;93.60
41318;DHT22;27067;51.554;7.026;2022-08-01T04:50:34;22.60;93.50
41318;DHT22;27067;51.554;7.026;2022-08-01T04:53:00;22.60;93.30
41318;DHT22;27067;51.554;7.026;2022-08-01T04:55:28;22.60;93.70
41318;DHT22;27067;51.554;7.026;2022-08-01T04:57:54;22.60;93.60
41318;DHT22;27067;51.554;7.026;2022-08-01T05:00:19;22.60;93.30
41318;DHT22;27067;51.554;7.026;2022-08-01T05:02:45;22.60;93.30
41318;DHT22;27067;51.554;7.026;2022-08-01T05:05:11;22.60;93.50
41318;DHT22;27067;51.554;7.026;2022-08-01T05:07:37;22.60;93.30
41318;DHT22;27067;51.554;7.026;2022-08-01T05:10:06;22.60;93.10
41318;DHT22;27067;51.554;7.026;2022-08-01T05:12:31;22.60;93.20
41318;DHT22;27067;51.554;7.026;2022-08-01T05:14:57;22.60;93.20
41318;DHT22;27067;51.554;7.026;2022-08-01T05:17:23;22.60;93.50
41318;DHT22;27067;51.554;7.026;2022-08-01T05:19:49;22.60;93.40
41318;DHT22;27067;51.554;7.026;2022-08-01T05:22:14;22.60;93.30
41318;DHT22;27067;51.554;7.026;2022-08-01T05:24:40;22.60;93.60
41318;DHT22;27067;51.554;7.026;2022-08-01T05:27:06;22.60;93.70
41318;DHT22;27067;51.554;7.026;2022-08-01T05:29:33;22.60;93.30
41318;DHT22;27067;51.554;7.026;2022-08-01T05:31:58;22.60;93.70
41318;DHT22;27067;51.554;7.026;2022-08-01T05:34:24;22.60;94.00
41318;DHT22;27067;51.554;7.026;2022-08-01T05:36:50;22.60;94.10
41318;DHT22;27067;51.554;7.026;2022-08-01T05:39:15;22.60;94.10
41318;DHT22;27067;51.554;7.026;2022-08-01T05:41:41;22.60;94.10
41318;DHT22;27067;51.554;7.026;2022-08-01T05:44:06;22.60;94.20
41318;DHT22;27067;51.554;7.026;2022-08-01T05:46:32;22.60;94.10
41318;DHT22;27067;51.554;7.026;2022-08-01T05:48:59;22.60;94.10
41318;DHT22;27067;51.554;7.026;2022-08-01T05:51:25;22.60;94.10
41318;DHT22;27067;51.554;7.026;2022-08-01T05:53:50;22.60;94.10
41318;DHT22;27067;51.554;7.026;2022-08-01T05:56:16;22.60;94.60
41318;DHT22;27067;51.554;7.026;2022-08-01T05:58:41;22.70;95.30
41318;DHT22;27067;51.554;7.026;2022-08-01T06:01:12;22.70;95.50
41318;DHT22;27067;51.554;7.026;2022-08-01T06:03:37;22.70;95.80
41318;DHT22;27067;51.554;7.026;2022-08-01T06:06:03;22.70;95.20
41318;DHT22;27067;51.554;7.026;2022-08-01T06:08:29;22.70;94.80
41318;DHT22;27067;51.554;7.026;2022-08-01T06:10:54;22.70;94.70
41318;DHT22;27067;51.554;7.026;2022-08-01T06:13:20;22.70;94.50
41318;DHT22;27067;51.554;7.026;2022-08-01T06:15:45;22.70;94.50
41318;DHT22;27067;51.554;7.026;2022-08-01T06:18:11;22.70;94.50
41318;DHT22;27067;51.554;7.026;2022-08-01T06:20:37;22.70;94.50
41318;DHT22;27067;51.554;7.026;2022-08-01T06:23:02;22.70;94.40
41318;DHT22;27067;51.554;7.026;2022-08-01T06:25:28;22.70;94.40
41318;DHT22;27067;51.554;7.026;2022-08-01T06:27:53;22.70;94.40
41318;DHT22;27067;51.554;7.026;2022-08-01T06:30:19;22.70;94.50
41318;DHT22;27067;51.554;7.026;2022-08-01T06:32:45;22.80;94.60
41318;DHT22;27067;51.554;7.026;2022-08-01T06:35:10;22.80;94.90
41318;DHT22;27067;51.554;7.026;2022-08-01T06:37:36;22.80;95.10
41318;DHT22;27067;51.554;7.026;2022-08-01T06:42:27;22.90;95.40
41318;DHT22;27067;51.554;7.026;2022-08-01T06:44:53;22.30;95.20
41318;DHT22;27067;51.554;7.026;2022-08-01T06:47:18;22.80;95.40
41318;DHT22;27067;51.554;7.026;2022-08-01T06:49:44;22.80;95.50
41318;DHT22;27067;51.554;7.026;2022-08-01T06:52:09;22.80;95.40
41318;DHT22;27067;51.554;7.026;2022-08-01T06:54:35;22.80;95.40
41318;DHT22;27067;51.554;7.026;2022-08-01T06:57:00;22.80;95.40
41318;DHT22;27067;51.554;7.026;2022-08-01T06:59:29;22.80;95.40
41318;DHT22;27067;51.554;7.026;2022-08-01T07:01:55;22.80;95.50
41318;DHT22;27067;51.554;7.026;2022-08-01T07:04:20;22.80;95.60
41318;DHT22;27067;51.554;7.026;2022-08-01T07:06:46;22.70;95.50
41318;DHT22;27067;51.554;7.026;2022-08-01T07:09:11;22.70;95.60
41318;DHT22;27067;51.554;7.026;2022-08-01T07:11:36;22.70;95.60
41318;DHT22;27067;51.554;7.026;2022-08-01T07:14:02;22.70;95.50
41318;DHT22;27067;51.554;7.026;2022-08-01T07:16:28;22.70;95.50
41318;DHT22;27067;51.554;7.026;2022-08-01T07:18:53;22.70;95.40
41318;DHT22;27067;51.554;7.026;2022-08-01T07:21:19;22.70;95.30
41318;DHT22;27067;51.554;7.026;2022-08-01T07:23:44;22.70;95.20
41318;DHT22;27067;51.554;7.026;2022-08-01T07:26:10;22.70;95.20
41318;DHT22;27067;51.554;7.026;2022-08-01T07:28:35;22.70;95.10
41318;DHT22;27067;51.554;7.026;2022-08-01T07:31:01;22.80;95.10
41318;DHT22;27067;51.554;7.026;2022-08-01T07:33:26;22.80;95.10
41318;DHT22;27067;51.554;7.026;2022-08-01T07:35:52;22.80;95.00
41318;DHT22;27067;51.554;7.026;2022-08-01T07:38:17;22.80;95.10
41318;DHT22;27067;51.554;7.026;2022-08-01T07:40:43;22.80;95.10
41318;DHT22;27067;51.554;7.026;2022-08-01T07:43:09;22.80;95.20
41318;DHT22;27067;51.554;7.026;2022-08-01T07:45:34;22.80;95.30
41318;DHT22;27067;51.554;7.026;2022-08-01T07:48:04;22.80;95.40
41318;DHT22;27067;51.554;7.026;2022-08-01T07:50:29;22.80;95.30
41318;DHT22;27067;51.554;7.026;2022-08-01T07:52:55;22.80;95.30
41318;DHT22;27067;51.554;7.026;2022-08-01T07:55:20;22.80;95.30
41318;DHT22;27067;51.554;7.026;2022-08-01T07:57:46;22.90;95.30
41318;DHT22;27067;51.554;7.026;2022-08-01T08:00:11;22.90;95.40
41318;DHT22;27067;51.554;7.026;2022-08-01T08:02:38;22.90;95.30
41318;DHT22;27067;51.554;7.026;2022-08-01T08:05:03;22.90;95.30
41318;DHT22;27067;51.554;7.026;2022-08-01T08:07:29;22.90;95.30
41318;DHT22;27067;51.554;7.026;2022-08-01T08:09:55;22.90;95.30
41318;DHT22;27067;51.554;7.026;2022-08-01T08:12:21;23.00;95.20
41318;DHT22;27067;51.554;7.026;2022-08-01T08:14:47;23.00;95.20
41318;DHT22;27067;51.554;7.026;2022-08-01T08:17:12;23.00;95.20
41318;DHT22;27067;51.554;7.026;2022-08-01T08:19:38;23.00;95.10
41318;DHT22;27067;51.554;7.026;2022-08-01T08:22:08;23.00;95.10
41318;DHT22;27067;51.554;7.026;2022-08-01T08:24:34;23.00;95.00
41318;DHT22;27067;51.554;7.026;2022-08-01T08:27:00;23.00;94.90
41318;DHT22;27067;51.554;7.026;2022-08-01T08:29:27;23.00;94.90
41318;DHT22;27067;51.554;7.026;2022-08-01T08:31:54;23.00;94.80
41318;DHT22;27067;51.554;7.026;2022-08-01T08:34:20;23.00;94.70
41318;DHT22;27067;51.554;7.026;2022-08-01T08:36:46;23.00;94.70
41318;DHT22;27067;51.554;7.026;2022-08-01T08:39:11;23.00;94.70
41318;DHT22;27067;51.554;7.026;2022-08-01T08:41:37;23.00;94.70
41318;DHT22;27067;51.554;7.026;2022-08-01T08:44:03;23.00;94.70
41318;DHT22;27067;51.554;7.026;2022-08-01T08:46:29;23.00;94.70
41318;DHT22;27067;51.554;7.026;2022-08-01T08:48:58;23.00;94.60
41318;DHT22;27067;51.554;7.026;2022-08-01T08:51:25;22.90;94.50
41318;DHT22;27067;51.554;7.026;2022-08-01T08:53:51;23.00;94.50
41318;DHT22;27067;51.554;7.026;2022-08-01T08:56:19;22.90;94.40
41318;DHT22;27067;51.554;7.026;2022-08-01T08:58:45;23.00;94.40
41318;DHT22;27067;51.554;7.026;2022-08-01T09:01:11;23.00;94.40
41318;DHT22;27067;51.554;7.026;2022-08-01T09:03:38;23.00;94.40
41318;DHT22;27067;51.554;7.026;2022-08-01T09:06:03;23.00;94.30
41318;DHT22;27067;51.554;7.026;2022-08-01T09:08:29;23.00;94.30
41318;DHT22;27067;51.554;7.026;2022-08-01T09:10:54;23.00;94.30
41318;DHT22;27067;51.554;7.026;2022-08-01T09:13:20;22.90;94.30
41318;DHT22;27067;51.554;7.026;2022-08-01T09:15:47;23.00;94.40
41318;DHT22;27067;51.554;7.026;2022-08-01T09:21:19;22.90;94.30
41318;DHT22;27067;51.554;7.026;2022-08-01T09:23:51;22.90;94.30
41318;DHT22;27067;51.554;7.026;2022-08-01T09:26:35;23.00;94.30
41318;DHT22;27067;51.554;7.026;2022-08-01T09:29:05;22.90;94.20
41318;DHT22;27067;51.554;7.026;2022-08-01T09:31:38;23.00;94.10
41318;DHT22;27067;51.554;7.026;2022-08-01T09:34:04;23.00;94.20
41318;DHT22;27067;51.554;7.026;2022-08-01T09:39:17;23.00;94.10
41318;DHT22;27067;51.554;7.026;2022-08-01T09:41:42;23.00;94.00
41318;DHT22;27067;51.554;7.026;2022-08-01T09:44:08;23.00;94.00
41318;DHT22;27067;51.554;7.026;2022-08-01T09:46:34;23.00;93.90
41318;DHT22;27067;51.554;7.026;2022-08-01T09:49:00;23.00;93.90
41318;DHT22;27067;51.554;7.026;2022-08-01T09:51:29;23.00;94.00
41318;DHT22;27067;51.554;7.026;2022-08-01T09:53:55;23.00;94.20
41318;DHT22;27067;51.554;7.026;2022-08-01T09:56:21;23.00;94.00
41318;DHT22;27067;51.554;7.026;2022-08-01T09:58:54;23.00;94.00
41318;DHT22;27067;51.554;7.026;2022-08-01T10:01:20;23.00;93.90
41318;DHT22;27067;51.554;7.026;2022-08-01T10:03:46;23.00;93.90
41318;DHT22;27067;51.554;7.026;2022-08-01T10:06:18;23.00;93.90
41318;DHT22;27067;51.554;7.026;2022-08-01T10:08:47;23.00;93.80
41318;DHT22;27067;51.554;7.026;2022-08-01T10:11:13;23.00;93.80
41318;DHT22;27067;51.554;7.026;2022-08-01T10:13:39;23.00;93.70
41318;DHT22;27067;51.554;7.026;2022-08-01T10:16:05;23.00;93.70
41318;DHT22;27067;51.554;7.026;2022-08-01T10:18:33;23.00;93.60
41318;DHT22;27067;51.554;7.026;2022-08-01T10:20:59;23.00;93.60
41318;DHT22;27067;51.554;7.026;2022-08-01T10:23:26;23.00;93.50
41318;DHT22;27067;51.554;7.026;2022-08-01T10:25:52;23.00;93.50
41318;DHT22;27067;51.554;7.026;2022-08-01T10:28:19;23.00;93.50
41318;DHT22;27067;51.554;7.026;2022-08-01T10:30:45;23.00;93.50
41318;DHT22;27067;51.554;7.026;2022-08-01T10:33:11;23.00;93.40
41318;DHT22;27067;51.554;7.026;2022-08-01T10:35:40;23.00;93.40
41318;DHT22;27067;51.554;7.026;2022-08-01T10:38:06;23.00;93.30
41318;DHT22;27067;51.554;7.026;2022-08-01T10:40:32;23.00;93.20
41318;DHT22;27067;51.554;7.026;2022-08-01T10:42:58;22.90;93.10
41318;DHT22;27067;51.554;7.026;2022-08-01T10:45:24;23.00;93.10
41318;DHT22;27067;51.554;7.026;2022-08-01T10:48:05;23.00;93.00
41318;DHT22;27067;51.554;7.026;2022-08-01T10:50:37;23.00;93.00
41318;DHT22;27067;51.554;7.026;2022-08-01T10:53:05;23.00;93.00
41318;DHT22;27067;51.554;7.026;2022-08-01T10:55:44;23.00;92.90
41318;DHT22;27067;51.554;7.026;2022-08-01T10:58:10;23.00;92.90
41318;DHT22;27067;51.554;7.026;2022-08-01T11:00:35;22.90;92.80
41318;DHT22;27067;51.554;7.026;2022-08-01T11:03:01;23.00;92.70
41318;DHT22;27067;51.554;7.026;2022-08-01T11:05:32;23.00;92.70
41318;DHT22;27067;51.554;7.026;2022-08-01T11:08:01;22.90;92.70
41318;DHT22;27067;51.554;7.026;2022-08-01T11:12:53;23.00;92.80
41318;DHT22;27067;51.554;7.026;2022-08-01T11:15:19;23.00;92.70
41318;DHT22;27067;51.554;7.026;2022-08-01T11:17:50;22.90;92.70
41318;DHT22;27067;51.554;7.026;2022-08-01T11:20:30;23.00;92.70
41318;DHT22;27067;51.554;7.026;2022-08-01T11:30:52;23.00;92.50
41318;DHT22;27067;51.554;7.026;2022-08-01T11:38:36;23.00;92.40
41318;DHT22;27067;51.554;7.026;2022-08-01T11:41:15;23.00;92.40
41318;DHT22;27067;51.554;7.026;2022-08-01T11:44:01;23.00;92.30
41318;DHT22;27067;51.554;7.026;2022-08-01T11:49:27;23.00;92.10
41318;DHT22;27067;51.554;7.026;2022-08-01T11:51:58;23.10;92.00
41318;DHT22;27067;51.554;7.026;2022-08-01T11:54:28;23.10;91.90
41318;DHT22;27067;51.554;7.026;2022-08-01T11:56:55;23.10;91.90
41318;DHT22;27067;51.554;7.026;2022-08-01T11:59:21;23.10;91.90
41318;DHT22;27067;51.554;7.026;2022-08-01T12:01:46;23.00;92.20
41318;DHT22;27067;51.554;7.026;2022-08-01T12:04:12;23.00;91.90
41318;DHT22;27067;51.554;7.026;2022-08-01T12:06:37;23.00;91.90
41318;DHT22;27067;51.554;7.026;2022-08-01T12:09:17;23.00;91.90
41318;DHT22;27067;51.554;7.026;2022-08-01T12:11:43;23.00;91.90
41318;DHT22;27067;51.554;7.026;2022-08-01T12:14:09;23.00;91.80
41318;DHT22;27067;51.554;7.026;2022-08-01T12:16:36;23.00;91.80
41318;DHT22;27067;51.554;7.026;2022-08-01T12:19:01;23.10;91.70
41318;DHT22;27067;51.554;7.026;2022-08-01T12:21:27;23.10;91.70
41318;DHT22;27067;51.554;7.026;2022-08-01T12:24:02;23.10;91.60
41318;DHT22;27067;51.554;7.026;2022-08-01T12:26:40;23.10;91.60
41318;DHT22;27067;51.554;7.026;2022-08-01T12:29:06;23.10;91.50
41318;DHT22;27067;51.554;7.026;2022-08-01T12:31:33;23.10;91.40
41318;DHT22;27067;51.554;7.026;2022-08-01T12:33:58;23.10;91.40
41318;DHT22;27067;51.554;7.026;2022-08-01T12:36:44;23.10;91.40
41318;DHT22;27067;51.554;7.026;2022-08-01T12:39:09;23.10;91.50
41318;DHT22;27067;51.554;7.026;2022-08-01T12:41:35;23.00;91.50
41318;DHT22;27067;51.554;7.026;2022-08-01T12:44:01;23.00;91.60
41318;DHT22;27067;51.554;7.026;2022-08-01T12:46:27;23.00;91.60
41318;DHT22;27067;51.554;7.026;2022-08-01T12:48:52;23.00;91.60
41318;DHT22;27067;51.554;7.026;2022-08-01T12:51:18;23.00;91.70
41318;DHT22;27067;51.554;7.026;2022-08-01T12:53:43;23.00;91.70
41318;DHT22;27067;51.554;7.026;2022-08-01T12:56:10;23.00;91.70
41318;DHT22;27067;51.554;7.026;2022-08-01T12:58:36;23.00;91.70
41318;DHT22;27067;51.554;7.026;2022-08-01T13:01:06;23.00;91.60
41318;DHT22;27067;51.554;7.026;2022-08-01T13:03:31;23.00;91.60
41318;DHT22;27067;51.554;7.026;2022-08-01T13:05:57;21.80;91.30
41318;DHT22;27067;51.554;7.026;2022-08-01T13:08:31;23.00;91.60
41318;DHT22;27067;51.554;7.026;2022-08-01T13:11:00;23.00;91.60
41318;DHT22;27067;51.554;7.026;2022-08-01T13:13:34;23.00;91.50
41318;DHT22;27067;51.554;7.026;2022-08-01T13:16:03;23.00;91.50
41318;DHT22;27067;51.554;7.026;2022-08-01T13:18:30;23.00;91.50
41318;DHT22;27067;51.554;7.026;2022-08-01T13:23:38;23.10;91.60
41318;DHT22;27067;51.554;7.026;2022-08-01T13:26:04;23.00;91.70
41318;DHT22;27067;51.554;7.026;2022-08-01T13:28:30;23.10;91.90
41318;DHT22;27067;51.554;7.026;2022-08-01T13:31:07;23.10;92.40
41318;DHT22;27067;51.554;7.026;2022-08-01T13:33:41;23.20;92.80
41318;DHT22;27067;51.554;7.026;2022-08-01T13:36:07;23.30;92.90
41318;DHT22;27067;51.554;7.026;2022-08-01T13:38:32;23.30;92.70
41318;DHT22;27067;51.554;7.026;2022-08-01T13:41:16;23.40;92.90
41318;DHT22;27067;51.554;7.026;2022-08-01T13:43:42;23.40;92.90
41318;DHT22;27067;51.554;7.026;2022-08-01T13:46:08;23.40;92.80
41318;DHT22;27067;51.554;7.026;2022-08-01T13:48:33;23.40;92.70
41318;DHT22;27067;51.554;7.026;2022-08-01T13:50:59;23.40;92.60
41318;DHT22;27067;51.554;7.026;2022-08-01T13:53:25;23.30;92.20
41318;DHT22;27067;51.554;7.026;2022-08-01T13:55:51;23.30;92.00
41318;DHT22;27067;51.554;7.026;2022-08-01T13:58:16;23.30;91.80
41318;DHT22;27067;51.554;7.026;2022-08-01T14:00:42;23.30;91.80
41318;DHT22;27067;51.554;7.026;2022-08-01T14:03:08;23.30;91.90
41318;DHT22;27067;51.554;7.026;2022-08-01T14:05:35;23.20;91.80
41318;DHT22;27067;51.554;7.026;2022-08-01T14:08:01;23.20;91.80
41318;DHT22;27067;51.554;7.026;2022-08-01T14:10:26;23.20;91.80
41318;DHT22;27067;51.554;7.026;2022-08-01T14:12:52;23.20;91.70
41318;DHT22;27067;51.554;7.026;2022-08-01T14:15:17;23.20;91.70
41318;DHT22;27067;51.554;7.026;2022-08-01T14:17:43;23.20;91.60
41318;DHT22;27067;51.554;7.026;2022-08-01T14:20:08;23.20;91.40
41318;DHT22;27067;51.554;7.026;2022-08-01T14:22:34;23.20;91.50
41318;DHT22;27067;51.554;7.026;2022-08-01T14:25:00;23.20;91.50
41318;DHT22;27067;51.554;7.026;2022-08-01T14:27:25;23.20;91.50
41318;DHT22;27067;51.554;7.026;2022-08-01T14:29:51;23.10;91.30
41318;DHT22;27067;51.554;7.026;2022-08-01T14:32:16;23.10;91.40
41318;DHT22;27067;51.554;7.026;2022-08-01T14:34:42;23.10;91.30
41318;DHT22;27067;51.554;7.026;2022-08-01T14:37:07;23.20;91.30
41318;DHT22;27067;51.554;7.026;2022-08-01T14:39:33;23.10;91.20
41318;DHT22;27067;51.554;7.026;2022-08-01T14:41:58;23.10;91.20
41318;DHT22;27067;51.554;7.026;2022-08-01T14:44:24;23.10;91.10
41318;DHT22;27067;51.554;7.026;2022-08-01T14:46:49;23.10;91.10
41318;DHT22;27067;51.554;7.026;2022-08-01T14:49:15;23.10;91.10
41318;DHT22;27067;51.554;7.026;2022-08-01T14:51:40;23.10;91.00
41318;DHT22;27067;51.554;7.026;2022-08-01T14:54:06;23.10;91.00
41318;DHT22;27067;51.554;7.026;2022-08-01T14:56:31;23.10;90.90
41318;DHT22;27067;51.554;7.026;2022-08-01T14:58:57;23.10;90.90
41318;DHT22;27067;51.554;7.026;2022-08-01T15:01:22;23.10;90.80
41318;DHT22;27067;51.554;7.026;2022-08-01T15:03:48;23.10;90.80
41318;DHT22;27067;51.554;7.026;2022-08-01T15:06:15;23.10;91.10
41318;DHT22;27067;51.554;7.026;2022-08-01T15:08:40;23.10;90.80
41318;DHT22;27067;51.554;7.026;2022-08-01T15:11:06;23.10;90.70
41318;DHT22;27067;51.554;7.026;2022-08-01T15:13:31;23.10;90.70
41318;DHT22;27067;51.554;7.026;2022-08-01T15:15:57;23.10;90.70
41318;DHT22;27067;51.554;7.026;2022-08-01T15:18:23;23.10;90.70
41318;DHT22;27067;51.554;7.026;2022-08-01T15:20:48;23.10;90.60
41318;DHT22;27067;51.554;7.026;2022-08-01T15:23:14;23.10;90.60
41318;DHT22;27067;51.554;7.026;2022-08-01T15:25:39;23.10;90.50
41318;DHT22;27067;51.554;7.026;2022-08-01T15:28:05;23.10;90.50
41318;DHT22;27067;51.554;7.026;2022-08-01T15:30:31;23.10;90.40
41318;DHT22;27067;51.554;7.026;2022-08-01T15:32:58;23.20;90.40
41318;DHT22;27067;51.554;7.026;2022-08-01T15:35:23;23.20;90.30
41318;DHT22;27067;51.554;7.026;2022-08-01T15:37:49;23.10;90.30
41318;DHT22;27067;51.554;7.026;2022-08-01T15:40:14;23.20;90.30
41318;DHT22;27067;51.554;7.026;2022-08-01T15:42:40;23.20;90.30
41318;DHT22;27067;51.554;7.026;2022-08-01T15:45:06;23.20;90.30
41318;DHT22;27067;51.554;7.026;2022-08-01T15:47:32;23.10;90.20
41318;DHT22;27067;51.554;7.026;2022-08-01T15:49:58;23.10;90.20
41318;DHT22;27067;51.554;7.026;2022-08-01T15:52:26;23.10;90.20
41318;DHT22;27067;51.554;7.026;2022-08-01T15:54:52;23.10;90.20
41318;DHT22;27067;51.554;7.026;2022-08-01T15:57:17;23.10;90.20
41318;DHT22;27067;51.554;7.026;2022-08-01T15:59:43;23.10;90.10
41318;DHT22;27067;51.554;7.026;2022-08-01T16:02:08;23.10;90.10
41318;DHT22;27067;51.554;7.026;2022-08-01T16:04:34;23.10;90.00
41318;DHT22;27067;51.554;7.026;2022-08-01T16:06:59;23.10;90.00
41318;DHT22;27067;51.554;7.026;2022-08-01T16:09:25;23.20;90.00
41318;DHT22;27067;51.554;7.026;2022-08-01T16:11:51;23.10;89.90